createdAt,value
2018-01-24T00:00:01.448Z,26.03
2018-01-24T00:02:28.975Z,25.37
2018-01-24T00:04:56.527Z,23.27
2018-01-24T00:07:24.123Z,24.17
2018-01-24T00:09:51.722Z,23.77
2018-01-24T00:12:19.247Z,21.80
2018-01-24T00:14:46.836Z,23.20
2018-01-24T00:17:14.427Z,24.47
2018-01-24T00:19:41.971Z,21.57
2018-01-24T00:22:09.656Z,21.97
2018-01-24T00:24:37.269Z,23.57
2018-01-24T00:27:04.828Z,23.30
2018-01-24T00:29:32.481Z,22.90
2018-01-24T00:32:00.065Z,21.83
2018-01-24T00:34:27.662Z,23.20
2018-01-24T00:36:55.302Z,20.83
2018-01-24T00:39:22.888Z,21.37
2018-01-24T00:41:50.472Z,22.50
2018-01-24T00:44:18.109Z,21.07
2018-01-24T00:46:45.720Z,20.83
2018-01-24T00:49:13.312Z,21.80
2018-01-24T00:51:40.957Z,21.73
2018-01-24T00:54:08.558Z,20.70
2018-01-24T00:56:36.203Z,19.47
2018-01-24T00:59:03.837Z,21.00
2018-01-24T01:01:31.438Z,20.73
2018-01-24T01:03:58.988Z,21.27
2018-01-24T01:06:26.555Z,22.30
2018-01-24T01:08:54.151Z,20.97
2018-01-24T01:11:21.748Z,20.37
2018-01-24T01:13:49.302Z,21.20
2018-01-24T01:16:16.907Z,18.53
2018-01-24T01:18:44.496Z,20.00
2018-01-24T01:21:12.114Z,19.00
2018-01-24T01:23:39.673Z,20.30
2018-01-24T01:26:07.264Z,19.10
2018-01-24T01:28:34.872Z,20.67
2018-01-24T01:31:02.473Z,18.27
2018-01-24T01:33:30.069Z,19.27
2018-01-24T01:35:57.639Z,19.57
2018-01-24T01:38:25.246Z,18.70
2018-01-24T01:40:52.799Z,20.67
2018-01-24T01:43:20.461Z,18.90
2018-01-24T01:45:47.991Z,19.03
2018-01-24T01:48:27.462Z,18.00
2018-01-24T01:50:55.027Z,18.00
2018-01-24T01:53:22.608Z,17.30
2018-01-24T01:55:50.241Z,18.47
2018-01-24T01:58:17.873Z,20.00
2018-01-24T02:00:45.420Z,20.73
2018-01-24T02:03:13.030Z,16.97
2018-01-24T02:05:40.624Z,17.57
2018-01-24T02:08:08.215Z,18.03
2018-01-24T02:10:35.738Z,18.40
2018-01-24T02:13:03.296Z,19.33
2018-01-24T02:15:30.939Z,16.53
2018-01-24T02:17:58.527Z,16.43
2018-01-24T02:20:26.078Z,21.53
2018-01-24T02:22:53.729Z,15.50
2018-01-24T02:25:21.358Z,17.93
2018-01-24T02:27:48.880Z,18.80
2018-01-24T02:30:16.544Z,17.73
2018-01-24T02:32:44.072Z,18.57
2018-01-24T02:35:11.631Z,15.60
2018-01-24T02:37:39.270Z,16.90
2018-01-24T02:40:06.879Z,17.77
2018-01-24T02:42:34.409Z,17.83
2018-01-24T02:45:02.055Z,16.33
2018-01-24T02:47:29.659Z,15.97
2018-01-24T02:49:57.216Z,17.17
2018-01-24T02:52:24.844Z,15.83
2018-01-24T02:54:52.439Z,15.70
2018-01-24T02:57:20.042Z,14.43
2018-01-24T02:59:47.671Z,14.90
2018-01-24T03:02:15.282Z,16.17
2018-01-24T03:04:42.882Z,14.83
2018-01-24T03:07:10.517Z,16.47
2018-01-24T03:09:38.071Z,14.90
2018-01-24T03:12:05.636Z,15.77
2018-01-24T03:14:33.277Z,16.43
2018-01-24T03:17:00.874Z,13.97
2018-01-24T03:19:28.471Z,15.70
2018-01-24T03:21:56.041Z,14.83
2018-01-24T03:24:23.632Z,15.23
2018-01-24T03:26:51.231Z,14.90
2018-01-24T03:29:18.797Z,15.10
2018-01-24T03:31:46.398Z,16.77
2018-01-24T03:34:13.956Z,16.60
2018-01-24T03:36:41.519Z,15.40
2018-01-24T03:39:09.077Z,15.57
2018-01-24T03:41:36.677Z,15.33
2018-01-24T03:44:04.246Z,16.17
2018-01-24T03:46:31.803Z,14.27
2018-01-24T03:48:59.359Z,14.10
2018-01-24T03:51:26.961Z,14.03
2018-01-24T03:53:54.584Z,16.03
2018-01-24T03:56:22.127Z,16.77
2018-01-24T03:58:49.692Z,15.73
2018-01-24T04:01:17.536Z,14.97
2018-01-24T04:03:45.097Z,15.23
2018-01-24T04:06:12.724Z,16.23
2018-01-24T04:08:40.248Z,15.83
2018-01-24T04:11:07.811Z,16.70
2018-01-24T04:13:35.437Z,28.67
2018-01-24T04:16:03.031Z,13.80
2018-01-24T04:18:30.615Z,17.80
2018-01-24T04:20:58.174Z,13.87
2018-01-24T04:23:25.756Z,13.10
2018-01-24T04:25:53.348Z,14.33
2018-01-24T04:28:20.981Z,14.70
2018-01-24T04:30:48.507Z,14.70
2018-01-24T04:33:16.114Z,13.43
2018-01-24T04:35:43.711Z,13.43
2018-01-24T04:38:11.239Z,13.03
2018-01-24T04:40:38.815Z,13.17
2018-01-24T04:43:06.472Z,14.00
2018-01-24T04:45:34.104Z,14.53
2018-01-24T04:48:01.627Z,13.13
2018-01-24T04:50:29.257Z,16.07
2018-01-24T04:52:56.783Z,15.70
2018-01-24T04:55:24.376Z,15.60
2018-01-24T04:57:52.024Z,18.83
2018-01-24T05:00:19.571Z,16.53
2018-01-24T05:02:47.213Z,14.93
2018-01-24T05:05:14.817Z,15.37
2018-01-24T05:07:42.424Z,14.30
2018-01-24T05:10:10.036Z,13.43
2018-01-24T05:12:37.631Z,14.67
2018-01-24T05:15:05.182Z,17.37
2018-01-24T05:17:32.800Z,16.63
2018-01-24T05:20:00.393Z,13.17
2018-01-24T05:22:28.018Z,14.47
2018-01-24T05:24:55.604Z,17.43
2018-01-24T05:27:23.237Z,16.97
2018-01-24T05:29:50.835Z,21.53
2018-01-24T05:32:18.414Z,16.00
2018-01-24T05:34:45.970Z,25.80
2018-01-24T05:37:13.515Z,15.83
2018-01-24T05:39:41.066Z,14.13
2018-01-24T05:42:08.661Z,14.80
2018-01-24T05:44:36.260Z,14.57
2018-01-24T05:47:03.884Z,14.83
2018-01-24T05:49:31.471Z,14.30
2018-01-24T05:51:59.040Z,14.27
2018-01-24T05:54:26.635Z,14.73
2018-01-24T05:56:54.246Z,13.33
2018-01-24T05:59:21.771Z,17.83
2018-01-24T06:01:49.327Z,12.87
2018-01-24T06:04:16.908Z,12.30
2018-01-24T06:06:44.463Z,17.70
2018-01-24T06:09:12.026Z,15.20
2018-01-24T06:11:39.623Z,16.73
2018-01-24T06:14:07.220Z,13.97
2018-01-24T06:16:34.849Z,14.80
2018-01-24T06:19:02.435Z,14.47
2018-01-24T06:21:30.028Z,13.43
2018-01-24T06:23:57.652Z,13.47
2018-01-24T06:26:25.216Z,13.53
2018-01-24T06:28:52.796Z,14.50
2018-01-24T06:31:20.422Z,14.23
2018-01-24T06:33:47.948Z,14.27
2018-01-24T06:36:15.495Z,15.10
2018-01-24T06:38:43.133Z,15.30
2018-01-24T06:41:10.709Z,15.63
2018-01-24T06:43:38.228Z,13.07
2018-01-24T06:46:05.860Z,12.97
2018-01-24T06:48:33.455Z,16.60
2018-01-24T06:51:01.063Z,13.70
2018-01-24T06:53:28.780Z,14.57
2018-01-24T06:55:56.335Z,13.33
2018-01-24T06:58:23.860Z,12.60
2018-01-24T07:00:51.429Z,13.37
2018-01-24T07:03:19.067Z,13.43
2018-01-24T07:05:46.592Z,14.60
2018-01-24T07:08:14.216Z,13.77
2018-01-24T07:10:41.734Z,12.30
2018-01-24T07:13:21.156Z,13.37
2018-01-24T07:15:48.674Z,12.33
2018-01-24T07:18:16.256Z,13.03
2018-01-24T07:20:43.880Z,13.30
2018-01-24T07:23:11.459Z,14.43
2018-01-24T07:25:39.047Z,13.33
2018-01-24T07:28:06.610Z,12.77
2018-01-24T07:30:34.225Z,13.13
2018-01-24T07:33:01.783Z,13.10
2018-01-24T07:35:29.430Z,13.97
2018-01-24T07:37:56.980Z,11.80
2018-01-24T07:40:24.560Z,12.37
2018-01-24T07:42:52.447Z,12.73
2018-01-24T07:45:20.046Z,12.40
2018-01-24T07:47:47.629Z,12.80
2018-01-24T07:50:15.223Z,12.60
2018-01-24T07:52:42.746Z,15.13
2018-01-24T07:55:10.301Z,13.70
2018-01-24T07:57:37.883Z,13.43
2018-01-24T08:00:05.438Z,11.83
2018-01-24T08:02:33.024Z,12.10
2018-01-24T08:05:00.695Z,12.50
2018-01-24T08:07:28.218Z,13.33
2018-01-24T08:09:55.830Z,14.03
2018-01-24T08:12:23.456Z,12.83
2018-01-24T08:14:51.051Z,13.13
2018-01-24T08:17:18.579Z,13.73
2018-01-24T08:19:46.196Z,13.70
2018-01-24T08:22:13.800Z,13.70
2018-01-24T08:24:41.406Z,12.53
2018-01-24T08:27:09.032Z,15.57
2018-01-24T08:29:36.625Z,13.37
2018-01-24T08:32:04.180Z,12.57
2018-01-24T08:34:31.777Z,14.33
2018-01-24T08:36:59.364Z,13.13
2018-01-24T08:39:26.959Z,13.57
2018-01-24T08:41:54.475Z,13.80
2018-01-24T08:44:21.995Z,13.50
2018-01-24T08:46:49.602Z,12.27
2018-01-24T08:49:17.159Z,12.50
2018-01-24T08:51:44.766Z,14.03
2018-01-24T08:54:12.387Z,12.53
2018-01-24T08:56:39.907Z,10.97
2018-01-24T08:59:07.502Z,11.83
2018-01-24T09:01:35.138Z,12.67
2018-01-24T09:04:02.656Z,11.47
2018-01-24T09:06:30.319Z,12.80
2018-01-24T09:08:57.950Z,13.33
2018-01-24T09:13:58.269Z,15.70
2018-01-24T09:16:25.829Z,14.10
2018-01-24T09:21:26.080Z,14.30
2018-01-24T09:23:58.732Z,14.07
2018-01-24T09:26:26.365Z,13.93
2018-01-24T09:28:53.920Z,15.40
2018-01-24T09:31:21.455Z,14.53
2018-01-24T09:33:48.982Z,13.97
2018-01-24T09:38:49.627Z,13.90
2018-01-24T09:41:17.228Z,14.03
2018-01-24T09:43:44.784Z,15.93
2018-01-24T09:46:12.341Z,13.03
2018-01-24T09:48:39.891Z,14.40
2018-01-24T09:51:07.486Z,15.87
2018-01-24T09:53:35.438Z,13.23
2018-01-24T09:56:02.991Z,13.47
2018-01-24T09:58:30.514Z,14.57
2018-01-24T10:00:58.067Z,12.77
2018-01-24T10:03:25.588Z,13.00
2018-01-24T10:05:53.186Z,12.97
2018-01-24T10:08:20.824Z,15.47
2018-01-24T10:10:48.375Z,16.37
2018-01-24T10:13:16.003Z,13.77
2018-01-24T10:15:43.873Z,13.63
2018-01-24T10:18:11.391Z,13.70
2018-01-24T10:20:38.911Z,14.00
2018-01-24T10:23:06.496Z,14.57
2018-01-24T10:25:34.094Z,14.70
2018-01-24T10:28:01.623Z,15.40
2018-01-24T10:30:29.630Z,13.97
2018-01-24T10:32:57.235Z,13.13
2018-01-24T10:35:24.838Z,13.97
2018-01-24T10:37:52.390Z,14.73
2018-01-24T10:40:19.947Z,15.57
2018-01-24T10:42:47.516Z,14.30
2018-01-24T10:45:15.510Z,14.35
2018-01-24T10:47:43.108Z,11.77
2018-01-24T10:50:10.634Z,11.37
2018-01-24T10:52:38.256Z,13.47
2018-01-24T10:55:05.848Z,72.30
2018-01-24T10:57:33.409Z,59.30
2018-01-24T11:00:01.223Z,45.43
2018-01-24T11:02:28.794Z,40.80
2018-01-24T11:04:56.402Z,37.77
2018-01-24T11:07:24.025Z,36.20
2018-01-24T11:09:51.612Z,35.03
2018-01-24T11:12:19.198Z,73.60
2018-01-24T11:14:46.791Z,102.33
2018-01-24T11:17:14.320Z,78.77
2018-01-24T11:19:41.881Z,66.27
2018-01-24T11:22:09.519Z,74.67
2018-01-24T11:24:37.040Z,69.13
2018-01-24T11:27:04.641Z,65.17
2018-01-24T11:29:32.265Z,64.17
2018-01-24T11:31:59.872Z,62.90
2018-01-24T11:34:27.456Z,61.07
2018-01-24T11:36:55.009Z,62.40
2018-01-24T11:39:22.606Z,60.43
2018-01-24T11:41:50.210Z,57.77
2018-01-24T11:44:19.575Z,57.50
2018-01-24T11:46:47.254Z,58.23
2018-01-24T11:49:14.782Z,52.83
2018-01-24T11:51:42.502Z,58.23
2018-01-24T11:54:10.023Z,51.03
2018-01-24T11:59:13.803Z,51.50
2018-01-24T12:01:41.325Z,51.13
2018-01-24T12:04:08.884Z,46.63
2018-01-24T12:06:36.477Z,46.33
2018-01-24T12:09:04.063Z,45.50
2018-01-24T12:11:31.677Z,44.57
2018-01-24T12:13:59.427Z,42.33
2018-01-24T12:16:26.984Z,45.67
2018-01-24T12:18:54.504Z,46.00
2018-01-24T12:21:22.301Z,42.50
2018-01-24T12:23:49.851Z,41.43
2018-01-24T12:26:17.454Z,41.77
2018-01-24T12:28:45.087Z,42.97
2018-01-24T12:31:12.615Z,37.37
2018-01-24T12:33:40.172Z,39.97
2018-01-24T12:36:07.761Z,38.73
2018-01-24T12:38:35.362Z,37.10
2018-01-24T12:41:02.891Z,36.57
2018-01-24T12:43:30.483Z,34.53
2018-01-24T12:45:58.019Z,35.67
2018-01-24T12:48:25.571Z,38.20
2018-01-24T12:50:53.159Z,39.87
2018-01-24T12:53:20.761Z,33.60
2018-01-24T12:55:48.361Z,34.23
2018-01-24T12:58:16.182Z,35.00
2018-01-24T13:00:43.701Z,33.43
2018-01-24T13:03:11.275Z,33.07
2018-01-24T13:05:38.907Z,35.27
2018-01-24T13:08:06.438Z,30.23
2018-01-24T13:10:33.959Z,32.73
2018-01-24T13:13:01.766Z,31.87
2018-01-24T13:15:29.291Z,29.57
2018-01-24T13:17:56.811Z,28.27
2018-01-24T13:20:24.368Z,27.93
2018-01-24T13:22:51.893Z,27.33
2018-01-24T13:25:19.497Z,28.07
2018-01-24T13:27:47.046Z,29.73
2018-01-24T13:30:14.584Z,28.03
2018-01-24T13:32:42.181Z,28.03
2018-01-24T13:35:09.920Z,26.93
2018-01-24T13:37:37.440Z,25.77
2018-01-24T13:40:05.081Z,26.93
2018-01-24T13:42:32.638Z,27.00
2018-01-24T13:45:00.159Z,24.63
2018-01-24T13:47:27.758Z,24.23
2018-01-24T13:49:55.558Z,24.70
2018-01-24T13:52:23.079Z,23.20
2018-01-24T13:54:50.606Z,24.20
2018-01-24T13:57:18.462Z,23.47
2018-01-24T13:59:46.018Z,23.77
2018-01-24T14:02:13.542Z,22.63
2018-01-24T14:04:41.064Z,20.00
2018-01-24T14:07:08.587Z,24.20
2018-01-24T14:09:36.427Z,22.80
2018-01-24T14:12:03.931Z,21.83
2018-01-24T14:14:31.455Z,19.77
2018-01-24T14:16:59.219Z,22.60
2018-01-24T14:19:26.760Z,21.93
2018-01-24T14:21:54.283Z,19.93
2018-01-24T14:24:21.838Z,20.10
2018-01-24T14:26:49.387Z,20.80
2018-01-24T14:29:16.913Z,19.30
2018-01-24T14:31:44.509Z,22.07
2018-01-24T14:34:12.035Z,18.87
2018-01-24T14:36:39.558Z,19.23
2018-01-24T14:39:07.143Z,19.60
2018-01-24T14:41:34.703Z,17.47
2018-01-24T14:44:02.222Z,20.20
2018-01-24T14:46:29.853Z,22.07
2018-01-24T14:48:57.416Z,18.27
2018-01-24T14:51:25.015Z,19.23
2018-01-24T14:53:52.650Z,17.83
2018-01-24T14:56:20.203Z,18.40
2018-01-24T14:58:47.724Z,19.03
2018-01-24T15:01:15.419Z,17.20
2018-01-24T15:03:42.991Z,18.27
2018-01-24T15:06:10.520Z,16.63
2018-01-24T15:08:38.135Z,17.87
2018-01-24T15:11:05.662Z,18.53
2018-01-24T15:13:33.325Z,17.33
2018-01-24T15:16:00.965Z,17.10
2018-01-24T15:18:28.527Z,20.07
2018-01-24T15:20:56.105Z,15.00
2018-01-24T15:23:23.690Z,16.47
2018-01-24T15:25:51.251Z,16.17
2018-01-24T15:28:18.902Z,15.27
2018-01-24T15:30:46.779Z,16.07
2018-01-24T15:33:14.331Z,15.07
2018-01-24T15:35:42.035Z,16.07
2018-01-24T15:38:09.795Z,16.47
2018-01-24T15:40:37.393Z,14.07
2018-01-24T15:43:04.950Z,17.87
2018-01-24T15:45:32.590Z,15.23
2018-01-24T15:48:00.114Z,15.73
2018-01-24T15:50:27.709Z,14.13
2018-01-24T15:52:55.357Z,14.93
2018-01-24T15:55:22.945Z,16.20
2018-01-24T15:57:50.542Z,18.43
2018-01-24T16:00:18.413Z,15.40
2018-01-24T16:02:45.942Z,13.10
2018-01-24T16:05:13.535Z,14.17
2018-01-24T16:07:41.119Z,17.70
2018-01-24T16:10:08.683Z,17.13
2018-01-24T16:12:36.206Z,21.10
2018-01-24T16:15:03.962Z,19.03
2018-01-24T16:17:31.490Z,18.53
2018-01-24T16:19:59.160Z,15.53
2018-01-24T16:22:26.787Z,16.30
2018-01-24T16:24:54.381Z,16.03
2018-01-24T16:27:21.981Z,16.63
2018-01-24T16:29:49.581Z,16.90
2018-01-24T16:32:17.144Z,18.77
2018-01-24T16:34:44.668Z,18.83
2018-01-24T16:37:12.312Z,15.13
2018-01-24T16:39:39.917Z,19.53
2018-01-24T16:42:07.446Z,17.47
2018-01-24T16:44:35.267Z,17.90
2018-01-24T16:47:02.809Z,17.53
2018-01-24T16:49:30.443Z,16.00
2018-01-24T16:51:58.195Z,17.87
2018-01-24T16:54:25.796Z,16.30
2018-01-24T16:56:53.375Z,15.53
2018-01-24T16:59:21.030Z,15.30
2018-01-24T17:01:48.647Z,19.63
2018-01-24T17:04:16.266Z,18.23
2018-01-24T17:06:43.887Z,19.57
2018-01-24T17:09:11.460Z,30.80
2018-01-24T17:11:39.015Z,25.33
2018-01-24T17:14:06.670Z,25.60
2018-01-24T17:16:34.291Z,26.83
2018-01-24T17:19:01.947Z,28.23
2018-01-24T17:21:29.524Z,27.27
2018-01-24T17:23:57.118Z,31.13
2018-01-24T17:26:24.678Z,28.87
2018-01-24T17:28:52.251Z,30.63
2018-01-24T17:31:19.860Z,27.73
2018-01-24T17:33:47.420Z,27.80
2018-01-24T17:36:15.001Z,36.97
2018-01-24T17:38:42.601Z,35.07
2018-01-24T17:41:10.156Z,31.60
2018-01-24T17:43:37.789Z,34.13
2018-01-24T17:46:05.327Z,34.47
2018-01-24T17:48:32.855Z,35.00
2018-01-24T17:51:00.460Z,32.10
2018-01-24T17:53:28.017Z,32.77
2018-01-24T17:55:55.546Z,38.37
2018-01-24T17:58:23.118Z,53.73
2018-01-24T18:00:50.662Z,38.57
2018-01-24T18:03:18.264Z,34.17
2018-01-24T18:05:45.894Z,33.10
2018-01-24T18:08:13.502Z,30.73
2018-01-24T18:10:41.048Z,29.77
2018-01-24T18:13:08.683Z,26.90
2018-01-24T18:15:36.303Z,25.33
2018-01-24T18:18:03.911Z,30.77
2018-01-24T18:20:31.511Z,29.80
2018-01-24T18:22:59.045Z,30.53
2018-01-24T18:25:26.665Z,31.37
2018-01-24T18:27:54.375Z,26.40
2018-01-24T18:30:21.931Z,25.90
2018-01-24T18:32:49.498Z,29.90
2018-01-24T18:35:17.071Z,22.70
2018-01-24T18:37:44.602Z,29.43
2018-01-24T18:40:12.129Z,28.00
2018-01-24T18:42:41.517Z,30.43
2018-01-24T18:45:09.136Z,30.70
2018-01-24T18:47:36.760Z,30.57
2018-01-24T18:50:04.340Z,29.07
2018-01-24T18:52:31.967Z,31.20
2018-01-24T18:54:59.615Z,28.37
2018-01-24T18:57:27.252Z,35.73
2018-01-24T18:59:54.779Z,27.47
2018-01-24T19:02:22.416Z,29.80
2018-01-24T19:04:49.998Z,35.93
2018-01-24T19:09:49.248Z,33.53
2018-01-24T19:12:16.840Z,32.63
2018-01-24T19:14:44.457Z,31.70
2018-01-24T19:17:12.130Z,32.83
2018-01-24T19:19:39.744Z,33.33
2018-01-24T19:22:07.267Z,37.87
2018-01-24T19:24:34.869Z,36.80
2018-01-24T19:27:02.408Z,34.30
2018-01-24T19:29:29.991Z,33.90
2018-01-24T19:31:57.570Z,32.97
2018-01-24T19:34:25.189Z,35.10
2018-01-24T19:36:52.718Z,33.63
2018-01-24T19:39:20.348Z,37.97
2018-01-24T19:41:47.949Z,36.30
2018-01-24T19:44:15.503Z,36.30
2018-01-24T19:46:43.131Z,41.10
2018-01-24T19:49:10.701Z,40.63
2018-01-24T19:51:38.306Z,36.47
2018-01-24T19:54:05.941Z,34.43
2018-01-24T19:56:33.545Z,40.47
2018-01-24T19:59:01.075Z,36.70
2018-01-24T20:01:28.724Z,35.87
2018-01-24T20:03:56.254Z,37.00
2018-01-24T20:06:23.838Z,34.33
2018-01-24T20:08:51.471Z,34.87
2018-01-24T20:11:19.035Z,29.77
2018-01-24T20:13:46.586Z,32.80
2018-01-24T20:16:14.237Z,33.70
2018-01-24T20:18:41.770Z,33.77
2018-01-24T20:21:09.466Z,36.63
2018-01-24T20:23:37.123Z,35.57
2018-01-24T20:26:04.714Z,37.50
2018-01-24T20:28:32.282Z,32.23
2018-01-24T20:30:59.912Z,36.77
2018-01-24T20:33:27.530Z,35.10
2018-01-24T20:35:55.131Z,37.60
2018-01-24T20:38:22.775Z,34.50
2018-01-24T20:40:50.348Z,35.57
2018-01-24T20:43:17.940Z,35.70
2018-01-24T20:45:45.578Z,35.73
2018-01-24T20:48:13.107Z,38.40
2018-01-24T20:50:40.671Z,37.10
2018-01-24T20:53:08.281Z,39.73
2018-01-24T20:55:35.898Z,40.13
2018-01-24T20:58:03.504Z,38.80
2018-01-24T21:00:31.074Z,39.37
2018-01-24T21:02:58.668Z,37.17
2018-01-24T21:05:26.235Z,41.93
2018-01-24T21:07:54.005Z,35.33
2018-01-24T21:10:21.538Z,38.93
2018-01-24T21:12:49.071Z,39.87
2018-01-24T21:15:16.725Z,40.30
2018-01-24T21:17:44.250Z,38.30
2018-01-24T21:20:11.816Z,40.83
2018-01-24T21:22:39.434Z,39.50
2018-01-24T21:25:07.012Z,41.13
2018-01-24T21:27:34.614Z,37.93
2018-01-24T21:30:13.971Z,36.77
2018-01-24T21:32:53.224Z,42.63
2018-01-24T21:35:32.803Z,39.90
2018-01-24T21:38:00.376Z,38.27
2018-01-24T21:40:27.967Z,38.20
2018-01-24T21:42:55.604Z,36.37
2018-01-24T21:45:23.192Z,39.57
2018-01-24T21:47:50.714Z,39.73
2018-01-24T21:50:18.278Z,37.33
2018-01-24T21:52:45.879Z,41.60
2018-01-24T21:55:13.477Z,39.80
2018-01-24T21:57:41.071Z,40.03
2018-01-24T22:00:08.708Z,39.50
2018-01-24T22:02:36.331Z,37.40
2018-01-24T22:05:04.005Z,38.70
2018-01-24T22:07:31.649Z,38.43
2018-01-24T22:09:59.176Z,38.70
2018-01-24T22:12:26.808Z,40.70
2018-01-24T22:14:54.407Z,37.53
2018-01-24T22:17:22.004Z,40.40
2018-01-24T22:19:49.567Z,39.90
2018-01-24T22:22:17.156Z,37.00
2018-01-24T22:24:44.742Z,37.97
2018-01-24T22:27:12.339Z,38.50
2018-01-24T22:29:39.930Z,43.27
2018-01-24T22:32:07.539Z,39.53
2018-01-24T22:34:35.129Z,39.93
2018-01-24T22:37:02.753Z,38.17
2018-01-24T22:39:30.343Z,36.77
2018-01-24T22:41:57.969Z,38.57
2018-01-24T22:44:25.511Z,42.40
2018-01-24T22:46:53.144Z,37.63
2018-01-24T22:49:20.761Z,40.30
2018-01-24T22:51:48.364Z,40.40
2018-01-24T22:54:16.013Z,36.97
2018-01-24T22:56:43.580Z,41.77
2018-01-24T22:59:11.172Z,38.97
2018-01-24T23:01:38.801Z,35.00
2018-01-24T23:04:06.323Z,37.13
2018-01-24T23:06:33.917Z,36.23
2018-01-24T23:09:01.519Z,38.57
2018-01-24T23:11:29.043Z,35.40
2018-01-24T23:13:56.581Z,38.80
2018-01-24T23:16:24.175Z,39.63
2018-01-24T23:18:51.747Z,37.47
2018-01-24T23:21:19.306Z,36.33
2018-01-24T23:23:46.912Z,37.27
2018-01-24T23:26:14.517Z,36.77
2018-01-24T23:28:42.059Z,36.00
2018-01-24T23:31:09.696Z,39.77
2018-01-24T23:33:37.301Z,32.93
2018-01-24T23:36:04.859Z,36.30
2018-01-24T23:41:06.367Z,35.20
2018-01-24T23:43:33.968Z,34.77
2018-01-24T23:46:01.602Z,35.27
2018-01-24T23:48:29.212Z,34.97
2018-01-24T23:50:56.787Z,37.17
2018-01-24T23:53:24.394Z,33.60
2018-01-24T23:55:52.006Z,33.13
2018-01-24T23:58:19.582Z,36.67
